sensor_id;sensor_type;location;lat;lon;timestamp;pressure;altitude;pressure_sealevel;temperature
23208;BMP180;11773;52.570;13.052;2022-07-22T00:00:14;101482.00;;;27.30
23208;BMP180;11773;52.570;13.052;2022-07-22T00:02:44;101487.00;;;27.30
23208;BMP180;11773;52.570;13.052;2022-07-22T00:05:14;101472.00;;;27.30
23208;BMP180;11773;52.570;13.052;2022-07-22T00:07:43;101480.00;;;27.30
23208;BMP180;11773;52.570;13.052;2022-07-22T00:10:13;101476.00;;;27.30
23208;BMP180;11773;52.570;13.052;2022-07-22T00:12:43;101487.00;;;27.30
23208;BMP180;11773;52.570;13.052;2022-07-22T00:15:12;101473.00;;;27.20
23208;BMP180;11773;52.570;13.052;2022-07-22T00:17:42;101478.00;;;27.20
23208;BMP180;11773;52.570;13.052;2022-07-22T00:20:12;101480.00;;;27.30
23208;BMP180;11773;52.570;13.052;2022-07-22T00:22:41;101491.00;;;27.30
23208;BMP180;11773;52.570;13.052;2022-07-22T00:25:11;101489.00;;;27.30
23208;BMP180;11773;52.570;13.052;2022-07-22T00:27:41;101494.00;;;27.20
23208;BMP180;11773;52.570;13.052;2022-07-22T00:30:12;101498.00;;;27.20
23208;BMP180;11773;52.570;13.052;2022-07-22T00:32:41;101491.00;;;27.20
23208;BMP180;11773;52.570;13.052;2022-07-22T00:35:11;101486.00;;;27.20
23208;BMP180;11773;52.570;13.052;2022-07-22T00:37:40;101492.00;;;27.20
23208;BMP180;11773;52.570;13.052;2022-07-22T00:40:11;101484.00;;;27.20
23208;BMP180;11773;52.570;13.052;2022-07-22T00:42:41;101493.00;;;27.20
23208;BMP180;11773;52.570;13.052;2022-07-22T00:45:10;101482.00;;;27.20
23208;BMP180;11773;52.570;13.052;2022-07-22T00:47:40;101494.00;;;27.20
23208;BMP180;11773;52.570;13.052;2022-07-22T00:50:10;101486.00;;;27.10
23208;BMP180;11773;52.570;13.052;2022-07-22T00:52:40;101492.00;;;27.10
23208;BMP180;11773;52.570;13.052;2022-07-22T00:55:10;101501.00;;;27.10
23208;BMP180;11773;52.570;13.052;2022-07-22T00:57:40;101492.00;;;27.10
23208;BMP180;11773;52.570;13.052;2022-07-22T01:00:15;101497.00;;;27.10
23208;BMP180;11773;52.570;13.052;2022-07-22T01:02:45;101500.00;;;27.10
23208;BMP180;11773;52.570;13.052;2022-07-22T01:05:14;101500.00;;;27.10
23208;BMP180;11773;52.570;13.052;2022-07-22T01:07:44;101512.00;;;27.10
23208;BMP180;11773;52.570;13.052;2022-07-22T01:10:14;101507.00;;;27.10
23208;BMP180;11773;52.570;13.052;2022-07-22T01:12:44;101494.00;;;27.10
23208;BMP180;11773;52.570;13.052;2022-07-22T01:15:13;101502.00;;;27.10
23208;BMP180;11773;52.570;13.052;2022-07-22T01:17:43;101482.00;;;27.00
23208;BMP180;11773;52.570;13.052;2022-07-22T01:20:13;101492.00;;;27.10
23208;BMP180;11773;52.570;13.052;2022-07-22T01:22:42;101481.00;;;27.00
23208;BMP180;11773;52.570;13.052;2022-07-22T01:25:13;101486.00;;;27.00
23208;BMP180;11773;52.570;13.052;2022-07-22T01:27:42;101487.00;;;27.00
23208;BMP180;11773;52.570;13.052;2022-07-22T01:30:12;101480.00;;;27.00
23208;BMP180;11773;52.570;13.052;2022-07-22T01:32:42;101493.00;;;26.90
23208;BMP180;11773;52.570;13.052;2022-07-22T01:35:12;101478.00;;;26.90
23208;BMP180;11773;52.570;13.052;2022-07-22T01:37:41;101476.00;;;26.90
23208;BMP180;11773;52.570;13.052;2022-07-22T01:40:12;101487.00;;;26.90
23208;BMP180;11773;52.570;13.052;2022-07-22T01:42:41;101476.00;;;26.90
23208;BMP180;11773;52.570;13.052;2022-07-22T01:45:11;101493.00;;;26.80
23208;BMP180;11773;52.570;13.052;2022-07-22T01:47:41;101494.00;;;26.80
23208;BMP180;11773;52.570;13.052;2022-07-22T01:50:13;101484.00;;;26.80
23208;BMP180;11773;52.570;13.052;2022-07-22T01:52:43;101486.00;;;26.80
23208;BMP180;11773;52.570;13.052;2022-07-22T01:55:32;101485.00;;;26.80
23208;BMP180;11773;52.570;13.052;2022-07-22T01:58:01;101496.00;;;26.70
23208;BMP180;11773;52.570;13.052;2022-07-22T02:00:33;101489.00;;;26.70
23208;BMP180;11773;52.570;13.052;2022-07-22T02:03:03;101489.00;;;26.70
23208;BMP180;11773;52.570;13.052;2022-07-22T02:05:34;101496.00;;;26.70
23208;BMP180;11773;52.570;13.052;2022-07-22T02:08:07;101501.00;;;26.70
23208;BMP180;11773;52.570;13.052;2022-07-22T02:10:37;101495.00;;;26.60
23208;BMP180;11773;52.570;13.052;2022-07-22T02:13:07;101487.00;;;26.60
23208;BMP180;11773;52.570;13.052;2022-07-22T02:15:37;101484.00;;;26.60
23208;BMP180;11773;52.570;13.052;2022-07-22T02:18:18;101496.00;;;26.60
23208;BMP180;11773;52.570;13.052;2022-07-22T02:20:47;101487.00;;;26.50
23208;BMP180;11773;52.570;13.052;2022-07-22T02:23:17;101501.00;;;26.50
23208;BMP180;11773;52.570;13.052;2022-07-22T02:25:47;101499.00;;;26.50
23208;BMP180;11773;52.570;13.052;2022-07-22T02:28:17;101501.00;;;26.50
23208;BMP180;11773;52.570;13.052;2022-07-22T02:30:46;101493.00;;;26.50
23208;BMP180;11773;52.570;13.052;2022-07-22T02:33:16;101486.00;;;26.40
23208;BMP180;11773;52.570;13.052;2022-07-22T02:35:45;101502.00;;;26.40
23208;BMP180;11773;52.570;13.052;2022-07-22T02:38:15;101497.00;;;26.40
23208;BMP180;11773;52.570;13.052;2022-07-22T02:40:44;101494.00;;;26.40
23208;BMP180;11773;52.570;13.052;2022-07-22T02:43:14;101498.00;;;26.40
23208;BMP180;11773;52.570;13.052;2022-07-22T02:45:43;101502.00;;;26.40
23208;BMP180;11773;52.570;13.052;2022-07-22T02:48:13;101486.00;;;26.40
23208;BMP180;11773;52.570;13.052;2022-07-22T02:50:47;101508.00;;;26.40
23208;BMP180;11773;52.570;13.052;2022-07-22T02:53:17;101491.00;;;26.30
23208;BMP180;11773;52.570;13.052;2022-07-22T02:55:46;101502.00;;;26.30
23208;BMP180;11773;52.570;13.052;2022-07-22T02:58:16;101505.00;;;26.30
23208;BMP180;11773;52.570;13.052;2022-07-22T03:00:45;101511.00;;;26.30
23208;BMP180;11773;52.570;13.052;2022-07-22T03:03:15;101504.00;;;26.30
23208;BMP180;11773;52.570;13.052;2022-07-22T03:05:44;101523.00;;;26.30
23208;BMP180;11773;52.570;13.052;2022-07-22T03:08:14;101517.00;;;26.30
23208;BMP180;11773;52.570;13.052;2022-07-22T03:10:43;101505.00;;;26.20
23208;BMP180;11773;52.570;13.052;2022-07-22T03:13:13;101499.00;;;26.20
23208;BMP180;11773;52.570;13.052;2022-07-22T03:15:43;101517.00;;;26.20
23208;BMP180;11773;52.570;13.052;2022-07-22T03:18:12;101518.00;;;26.20
23208;BMP180;11773;52.570;13.052;2022-07-22T03:20:42;101507.00;;;26.20
23208;BMP180;11773;52.570;13.052;2022-07-22T03:23:11;101512.00;;;26.20
23208;BMP180;11773;52.570;13.052;2022-07-22T03:25:41;101519.00;;;26.10
23208;BMP180;11773;52.570;13.052;2022-07-22T03:28:11;101502.00;;;26.10
23208;BMP180;11773;52.570;13.052;2022-07-22T03:30:40;101502.00;;;26.10
23208;BMP180;11773;52.570;13.052;2022-07-22T03:33:10;101516.00;;;26.10
23208;BMP180;11773;52.570;13.052;2022-07-22T03:35:39;101504.00;;;26.10
23208;BMP180;11773;52.570;13.052;2022-07-22T03:38:09;101521.00;;;26.10
23208;BMP180;11773;52.570;13.052;2022-07-22T03:40:38;101510.00;;;26.10
23208;BMP180;11773;52.570;13.052;2022-07-22T03:43:08;101516.00;;;26.10
23208;BMP180;11773;52.570;13.052;2022-07-22T03:45:37;101509.00;;;26.10
23208;BMP180;11773;52.570;13.052;2022-07-22T03:48:07;101520.00;;;26.10
23208;BMP180;11773;52.570;13.052;2022-07-22T03:50:36;101524.00;;;26.10
23208;BMP180;11773;52.570;13.052;2022-07-22T03:53:06;101505.00;;;26.10
23208;BMP180;11773;52.570;13.052;2022-07-22T03:55:36;101514.00;;;26.10
23208;BMP180;11773;52.570;13.052;2022-07-22T03:58:05;101533.00;;;26.10
23208;BMP180;11773;52.570;13.052;2022-07-22T04:00:35;101523.00;;;26.10
23208;BMP180;11773;52.570;13.052;2022-07-22T04:03:05;101515.00;;;26.10
23208;BMP180;11773;52.570;13.052;2022-07-22T04:05:34;101526.00;;;26.10
23208;BMP180;11773;52.570;13.052;2022-07-22T04:08:04;101529.00;;;26.10
23208;BMP180;11773;52.570;13.052;2022-07-22T04:10:34;101539.00;;;26.00
23208;BMP180;11773;52.570;13.052;2022-07-22T04:13:03;101526.00;;;26.10
23208;BMP180;11773;52.570;13.052;2022-07-22T04:15:33;101533.00;;;26.10
23208;BMP180;11773;52.570;13.052;2022-07-22T04:18:03;101522.00;;;26.10
23208;BMP180;11773;52.570;13.052;2022-07-22T04:20:32;101536.00;;;26.10
23208;BMP180;11773;52.570;13.052;2022-07-22T04:23:02;101516.00;;;26.10
23208;BMP180;11773;52.570;13.052;2022-07-22T04:25:31;101532.00;;;26.10
23208;BMP180;11773;52.570;13.052;2022-07-22T04:28:01;101530.00;;;26.10
23208;BMP180;11773;52.570;13.052;2022-07-22T04:30:30;101533.00;;;26.10
23208;BMP180;11773;52.570;13.052;2022-07-22T04:33:01;101529.00;;;26.10
23208;BMP180;11773;52.570;13.052;2022-07-22T04:35:31;101524.00;;;26.10
23208;BMP180;11773;52.570;13.052;2022-07-22T04:38:00;101531.00;;;26.10
23208;BMP180;11773;52.570;13.052;2022-07-22T04:40:30;101542.00;;;26.10
23208;BMP180;11773;52.570;13.052;2022-07-22T04:43:00;101535.00;;;26.10
23208;BMP180;11773;52.570;13.052;2022-07-22T04:45:29;101535.00;;;26.10
23208;BMP180;11773;52.570;13.052;2022-07-22T04:47:59;101538.00;;;26.10
23208;BMP180;11773;52.570;13.052;2022-07-22T04:50:28;101541.00;;;26.10
23208;BMP180;11773;52.570;13.052;2022-07-22T04:52:58;101523.00;;;26.10
23208;BMP180;11773;52.570;13.052;2022-07-22T04:55:27;101536.00;;;26.10
23208;BMP180;11773;52.570;13.052;2022-07-22T04:57:57;101534.00;;;26.10
23208;BMP180;11773;52.570;13.052;2022-07-22T05:00:27;101533.00;;;26.20
23208;BMP180;11773;52.570;13.052;2022-07-22T05:02:56;101529.00;;;26.20
23208;BMP180;11773;52.570;13.052;2022-07-22T05:05:26;101534.00;;;26.20
23208;BMP180;11773;52.570;13.052;2022-07-22T05:07:55;101542.00;;;26.20
23208;BMP180;11773;52.570;13.052;2022-07-22T05:10:25;101531.00;;;26.30
23208;BMP180;11773;52.570;13.052;2022-07-22T05:12:55;101533.00;;;26.30
23208;BMP180;11773;52.570;13.052;2022-07-22T05:15:25;101529.00;;;26.30
23208;BMP180;11773;52.570;13.052;2022-07-22T05:17:55;101531.00;;;26.30
23208;BMP180;11773;52.570;13.052;2022-07-22T05:20:24;101531.00;;;26.30
23208;BMP180;11773;52.570;13.052;2022-07-22T05:22:54;101544.00;;;26.30
23208;BMP180;11773;52.570;13.052;2022-07-22T05:25:23;101547.00;;;26.30
23208;BMP180;11773;52.570;13.052;2022-07-22T05:27:55;101536.00;;;26.40
23208;BMP180;11773;52.570;13.052;2022-07-22T05:30:24;101541.00;;;26.40
23208;BMP180;11773;52.570;13.052;2022-07-22T05:32:54;101552.00;;;26.40
23208;BMP180;11773;52.570;13.052;2022-07-22T05:35:24;101536.00;;;26.30
23208;BMP180;11773;52.570;13.052;2022-07-22T05:37:54;101549.00;;;26.40
23208;BMP180;11773;52.570;13.052;2022-07-22T05:40:24;101540.00;;;26.40
23208;BMP180;11773;52.570;13.052;2022-07-22T05:42:54;101545.00;;;26.40
23208;BMP180;11773;52.570;13.052;2022-07-22T05:45:24;101554.00;;;26.40
23208;BMP180;11773;52.570;13.052;2022-07-22T05:47:53;101545.00;;;26.40
23208;BMP180;11773;52.570;13.052;2022-07-22T05:50:23;101550.00;;;26.40
23208;BMP180;11773;52.570;13.052;2022-07-22T05:52:52;101554.00;;;26.40
23208;BMP180;11773;52.570;13.052;2022-07-22T05:55:22;101541.00;;;26.30
23208;BMP180;11773;52.570;13.052;2022-07-22T05:57:51;101546.00;;;26.30
23208;BMP180;11773;52.570;13.052;2022-07-22T06:00:22;101554.00;;;26.40
23208;BMP180;11773;52.570;13.052;2022-07-22T06:02:51;101550.00;;;26.40
23208;BMP180;11773;52.570;13.052;2022-07-22T06:05:21;101561.00;;;26.40
23208;BMP180;11773;52.570;13.052;2022-07-22T06:07:52;101561.00;;;26.40
23208;BMP180;11773;52.570;13.052;2022-07-22T06:10:22;101551.00;;;26.40
23208;BMP180;11773;52.570;13.052;2022-07-22T06:12:51;101549.00;;;26.40
23208;BMP180;11773;52.570;13.052;2022-07-22T06:15:21;101552.00;;;26.50
23208;BMP180;11773;52.570;13.052;2022-07-22T06:17:52;101543.00;;;26.50
23208;BMP180;11773;52.570;13.052;2022-07-22T06:20:22;101552.00;;;26.50
23208;BMP180;11773;52.570;13.052;2022-07-22T06:22:51;101555.00;;;26.50
23208;BMP180;11773;52.570;13.052;2022-07-22T06:25:21;101553.00;;;26.50
23208;BMP180;11773;52.570;13.052;2022-07-22T06:27:52;101545.00;;;26.60
23208;BMP180;11773;52.570;13.052;2022-07-22T06:30:22;101552.00;;;26.60
23208;BMP180;11773;52.570;13.052;2022-07-22T06:32:51;101545.00;;;26.60
23208;BMP180;11773;52.570;13.052;2022-07-22T06:35:23;101548.00;;;26.70
23208;BMP180;11773;52.570;13.052;2022-07-22T06:37:54;101547.00;;;26.70
23208;BMP180;11773;52.570;13.052;2022-07-22T06:40:25;101555.00;;;26.80
23208;BMP180;11773;52.570;13.052;2022-07-22T06:42:55;101550.00;;;26.80
23208;BMP180;11773;52.570;13.052;2022-07-22T06:45:25;101551.00;;;26.90
23208;BMP180;11773;52.570;13.052;2022-07-22T06:47:54;101548.00;;;27.00
23208;BMP180;11773;52.570;13.052;2022-07-22T06:50:24;101534.00;;;27.10
23208;BMP180;11773;52.570;13.052;2022-07-22T06:52:54;101548.00;;;27.30
23208;BMP180;11773;52.570;13.052;2022-07-22T06:55:24;101539.00;;;27.40
23208;BMP180;11773;52.570;13.052;2022-07-22T06:57:53;101535.00;;;27.60
23208;BMP180;11773;52.570;13.052;2022-07-22T07:00:23;101556.00;;;27.70
23208;BMP180;11773;52.570;13.052;2022-07-22T07:02:52;101551.00;;;27.90
23208;BMP180;11773;52.570;13.052;2022-07-22T07:05:43;101542.00;;;28.00
23208;BMP180;11773;52.570;13.052;2022-07-22T07:08:13;101548.00;;;28.20
23208;BMP180;11773;52.570;13.052;2022-07-22T07:10:42;101553.00;;;28.30
23208;BMP180;11773;52.570;13.052;2022-07-22T07:13:12;101545.00;;;28.40
23208;BMP180;11773;52.570;13.052;2022-07-22T07:15:43;101547.00;;;28.50
23208;BMP180;11773;52.570;13.052;2022-07-22T07:18:12;101546.00;;;28.50
23208;BMP180;11773;52.570;13.052;2022-07-22T07:20:42;101553.00;;;28.60
23208;BMP180;11773;52.570;13.052;2022-07-22T07:23:11;101549.00;;;28.70
23208;BMP180;11773;52.570;13.052;2022-07-22T07:25:42;101545.00;;;28.80
23208;BMP180;11773;52.570;13.052;2022-07-22T07:28:11;101557.00;;;28.90
23208;BMP180;11773;52.570;13.052;2022-07-22T07:30:41;101566.00;;;28.90
23208;BMP180;11773;52.570;13.052;2022-07-22T07:33:11;101556.00;;;29.00
23208;BMP180;11773;52.570;13.052;2022-07-22T07:35:41;101556.00;;;29.00
23208;BMP180;11773;52.570;13.052;2022-07-22T07:38:11;101548.00;;;29.00
23208;BMP180;11773;52.570;13.052;2022-07-22T07:40:41;101556.00;;;29.10
23208;BMP180;11773;52.570;13.052;2022-07-22T07:43:10;101558.00;;;29.10
23208;BMP180;11773;52.570;13.052;2022-07-22T07:45:40;101556.00;;;29.10
23208;BMP180;11773;52.570;13.052;2022-07-22T07:48:10;101566.00;;;29.10
23208;BMP180;11773;52.570;13.052;2022-07-22T07:50:40;101553.00;;;29.10
23208;BMP180;11773;52.570;13.052;2022-07-22T07:53:19;101559.00;;;29.10
23208;BMP180;11773;52.570;13.052;2022-07-22T07:55:47;101571.00;;;29.10
23208;BMP180;11773;52.570;13.052;2022-07-22T07:58:16;101557.00;;;29.10
23208;BMP180;11773;52.570;13.052;2022-07-22T08:00:46;101559.00;;;29.20
23208;BMP180;11773;52.570;13.052;2022-07-22T08:03:16;101555.00;;;29.20
23208;BMP180;11773;52.570;13.052;2022-07-22T08:05:46;101563.00;;;29.30
23208;BMP180;11773;52.570;13.052;2022-07-22T08:08:15;101540.00;;;29.30
23208;BMP180;11773;52.570;13.052;2022-07-22T08:10:47;101555.00;;;29.40
23208;BMP180;11773;52.570;13.052;2022-07-22T08:13:18;101561.00;;;29.40
23208;BMP180;11773;52.570;13.052;2022-07-22T08:15:48;101564.00;;;29.50
23208;BMP180;11773;52.570;13.052;2022-07-22T08:18:17;101554.00;;;29.50
23208;BMP180;11773;52.570;13.052;2022-07-22T08:20:47;101556.00;;;29.50
23208;BMP180;11773;52.570;13.052;2022-07-22T08:23:17;101556.00;;;29.50
23208;BMP180;11773;52.570;13.052;2022-07-22T08:25:47;101564.00;;;29.60
23208;BMP180;11773;52.570;13.052;2022-07-22T08:28:17;101568.00;;;29.60
23208;BMP180;11773;52.570;13.052;2022-07-22T08:30:47;101559.00;;;29.50
23208;BMP180;11773;52.570;13.052;2022-07-22T08:33:16;101566.00;;;29.50
23208;BMP180;11773;52.570;13.052;2022-07-22T08:35:46;101572.00;;;29.50
23208;BMP180;11773;52.570;13.052;2022-07-22T08:38:15;101580.00;;;29.50
23208;BMP180;11773;52.570;13.052;2022-07-22T08:40:46;101586.00;;;29.50
23208;BMP180;11773;52.570;13.052;2022-07-22T08:43:16;101590.00;;;29.40
23208;BMP180;11773;52.570;13.052;2022-07-22T08:45:46;101583.00;;;29.40
23208;BMP180;11773;52.570;13.052;2022-07-22T08:48:17;101595.00;;;29.30
23208;BMP180;11773;52.570;13.052;2022-07-22T08:50:47;101599.00;;;29.30
23208;BMP180;11773;52.570;13.052;2022-07-22T08:53:17;101598.00;;;29.20
23208;BMP180;11773;52.570;13.052;2022-07-22T08:55:48;101597.00;;;29.20
23208;BMP180;11773;52.570;13.052;2022-07-22T08:58:18;101593.00;;;29.20
23208;BMP180;11773;52.570;13.052;2022-07-22T09:01:03;101600.00;;;29.10
23208;BMP180;11773;52.570;13.052;2022-07-22T09:03:24;101604.00;;;29.10
23208;BMP180;11773;52.570;13.052;2022-07-22T09:05:55;101605.00;;;29.10
23208;BMP180;11773;52.570;13.052;2022-07-22T09:08:25;101598.00;;;29.10
23208;BMP180;11773;52.570;13.052;2022-07-22T09:10:55;101597.00;;;29.10
23208;BMP180;11773;52.570;13.052;2022-07-22T09:13:24;101583.00;;;29.10
23208;BMP180;11773;52.570;13.052;2022-07-22T09:15:55;101595.00;;;29.20
23208;BMP180;11773;52.570;13.052;2022-07-22T09:18:24;101595.00;;;29.20
23208;BMP180;11773;52.570;13.052;2022-07-22T09:21:00;101599.00;;;29.30
23208;BMP180;11773;52.570;13.052;2022-07-22T09:23:38;101607.00;;;29.40
23208;BMP180;11773;52.570;13.052;2022-07-22T09:26:03;101602.00;;;29.40
23208;BMP180;11773;52.570;13.052;2022-07-22T09:28:33;101609.00;;;29.40
23208;BMP180;11773;52.570;13.052;2022-07-22T09:31:03;101606.00;;;29.40
23208;BMP180;11773;52.570;13.052;2022-07-22T09:33:34;101620.00;;;29.40
23208;BMP180;11773;52.570;13.052;2022-07-22T09:36:05;101605.00;;;29.30
23208;BMP180;11773;52.570;13.052;2022-07-22T09:38:34;101614.00;;;29.30
23208;BMP180;11773;52.570;13.052;2022-07-22T09:41:04;101603.00;;;29.30
23208;BMP180;11773;52.570;13.052;2022-07-22T09:43:36;101623.00;;;29.30
23208;BMP180;11773;52.570;13.052;2022-07-22T09:46:06;101622.00;;;29.30
23208;BMP180;11773;52.570;13.052;2022-07-22T09:48:38;101628.00;;;29.30
23208;BMP180;11773;52.570;13.052;2022-07-22T09:51:08;101632.00;;;29.30
23208;BMP180;11773;52.570;13.052;2022-07-22T09:53:37;101624.00;;;29.30
23208;BMP180;11773;52.570;13.052;2022-07-22T09:56:07;101623.00;;;29.30
23208;BMP180;11773;52.570;13.052;2022-07-22T09:58:37;101621.00;;;29.30
23208;BMP180;11773;52.570;13.052;2022-07-22T10:01:09;101634.00;;;29.30
23208;BMP180;11773;52.570;13.052;2022-07-22T10:03:42;101625.00;;;29.30
23208;BMP180;11773;52.570;13.052;2022-07-22T10:06:13;101626.00;;;29.30
23208;BMP180;11773;52.570;13.052;2022-07-22T10:08:43;101641.00;;;29.30
23208;BMP180;11773;52.570;13.052;2022-07-22T10:11:13;101630.00;;;29.30
23208;BMP180;11773;52.570;13.052;2022-07-22T10:13:43;101626.00;;;29.30
23208;BMP180;11773;52.570;13.052;2022-07-22T10:16:15;101626.00;;;29.40
23208;BMP180;11773;52.570;13.052;2022-07-22T10:18:47;101650.00;;;29.40
23208;BMP180;11773;52.570;13.052;2022-07-22T10:21:17;101651.00;;;29.40
23208;BMP180;11773;52.570;13.052;2022-07-22T10:24:10;101639.00;;;29.30
23208;BMP180;11773;52.570;13.052;2022-07-22T10:27:00;101650.00;;;29.30
23208;BMP180;11773;52.570;13.052;2022-07-22T10:29:41;101638.00;;;29.30
23208;BMP180;11773;52.570;13.052;2022-07-22T10:37:38;101644.00;;;29.30
23208;BMP180;11773;52.570;13.052;2022-07-22T10:40:21;101640.00;;;29.30
23208;BMP180;11773;52.570;13.052;2022-07-22T10:43:04;101643.00;;;29.30
23208;BMP180;11773;52.570;13.052;2022-07-22T10:45:40;101641.00;;;29.30
23208;BMP180;11773;52.570;13.052;2022-07-22T10:48:15;101637.00;;;29.30
23208;BMP180;11773;52.570;13.052;2022-07-22T10:54:23;101645.00;;;29.40
23208;BMP180;11773;52.570;13.052;2022-07-22T10:56:29;101638.00;;;29.40
23208;BMP180;11773;52.570;13.052;2022-07-22T10:59:17;101645.00;;;29.40
23208;BMP180;11773;52.570;13.052;2022-07-22T11:01:51;101642.00;;;29.50
23208;BMP180;11773;52.570;13.052;2022-07-22T11:04:25;101643.00;;;29.50
23208;BMP180;11773;52.570;13.052;2022-07-22T11:06:57;101636.00;;;29.60
23208;BMP180;11773;52.570;13.052;2022-07-22T11:09:32;101639.00;;;29.60
23208;BMP180;11773;52.570;13.052;2022-07-22T11:12:03;101642.00;;;29.70
23208;BMP180;11773;52.570;13.052;2022-07-22T11:14:35;101638.00;;;29.70
23208;BMP180;11773;52.570;13.052;2022-07-22T11:17:08;101643.00;;;29.80
23208;BMP180;11773;52.570;13.052;2022-07-22T11:19:39;101640.00;;;29.80
23208;BMP180;11773;52.570;13.052;2022-07-22T11:22:11;101639.00;;;29.80
23208;BMP180;11773;52.570;13.052;2022-07-22T11:24:42;101641.00;;;29.90
23208;BMP180;11773;52.570;13.052;2022-07-22T11:27:19;101633.00;;;29.90
23208;BMP180;11773;52.570;13.052;2022-07-22T11:29:53;101634.00;;;29.90
23208;BMP180;11773;52.570;13.052;2022-07-22T11:32:27;101640.00;;;29.90
23208;BMP180;11773;52.570;13.052;2022-07-22T11:35:00;101633.00;;;29.80
23208;BMP180;11773;52.570;13.052;2022-07-22T11:37:29;101628.00;;;29.80
23208;BMP180;11773;52.570;13.052;2022-07-22T11:40:03;101632.00;;;29.70
23208;BMP180;11773;52.570;13.052;2022-07-22T11:42:33;101627.00;;;29.70
23208;BMP180;11773;52.570;13.052;2022-07-22T11:45:04;101620.00;;;29.70
23208;BMP180;11773;52.570;13.052;2022-07-22T11:47:34;101641.00;;;29.60
23208;BMP180;11773;52.570;13.052;2022-07-22T11:50:05;101638.00;;;29.60
23208;BMP180;11773;52.570;13.052;2022-07-22T11:52:34;101631.00;;;29.60
23208;BMP180;11773;52.570;13.052;2022-07-22T11:55:16;101642.00;;;29.50
23208;BMP180;11773;52.570;13.052;2022-07-22T11:57:48;101640.00;;;29.50
23208;BMP180;11773;52.570;13.052;2022-07-22T12:00:19;101642.00;;;29.50
23208;BMP180;11773;52.570;13.052;2022-07-22T12:02:48;101632.00;;;29.50
23208;BMP180;11773;52.570;13.052;2022-07-22T12:05:19;101631.00;;;29.50
23208;BMP180;11773;52.570;13.052;2022-07-22T12:07:50;101636.00;;;29.40
23208;BMP180;11773;52.570;13.052;2022-07-22T12:10:21;101634.00;;;29.40
23208;BMP180;11773;52.570;13.052;2022-07-22T12:12:51;101643.00;;;29.40
23208;BMP180;11773;52.570;13.052;2022-07-22T12:15:21;101632.00;;;29.40
23208;BMP180;11773;52.570;13.052;2022-07-22T12:17:52;101636.00;;;29.40
23208;BMP180;11773;52.570;13.052;2022-07-22T12:20:26;101634.00;;;29.40
23208;BMP180;11773;52.570;13.052;2022-07-22T12:22:56;101633.00;;;29.40
23208;BMP180;11773;52.570;13.052;2022-07-22T12:25:28;101644.00;;;29.40
23208;BMP180;11773;52.570;13.052;2022-07-22T12:28:02;101639.00;;;29.40
23208;BMP180;11773;52.570;13.052;2022-07-22T12:30:31;101632.00;;;29.50
23208;BMP180;11773;52.570;13.052;2022-07-22T12:33:01;101635.00;;;29.50
23208;BMP180;11773;52.570;13.052;2022-07-22T12:35:30;101628.00;;;29.50
23208;BMP180;11773;52.570;13.052;2022-07-22T12:38:09;101618.00;;;29.50
23208;BMP180;11773;52.570;13.052;2022-07-22T12:40:39;101618.00;;;29.50
23208;BMP180;11773;52.570;13.052;2022-07-22T12:43:09;101622.00;;;29.60
23208;BMP180;11773;52.570;13.052;2022-07-22T12:45:39;101627.00;;;29.60
23208;BMP180;11773;52.570;13.052;2022-07-22T12:48:11;101627.00;;;29.60
23208;BMP180;11773;52.570;13.052;2022-07-22T12:50:56;101622.00;;;29.70
23208;BMP180;11773;52.570;13.052;2022-07-22T12:53:26;101627.00;;;29.70
23208;BMP180;11773;52.570;13.052;2022-07-22T12:55:58;101613.00;;;29.80
23208;BMP180;11773;52.570;13.052;2022-07-22T12:58:31;101617.00;;;29.80
23208;BMP180;11773;52.570;13.052;2022-07-22T13:01:01;101629.00;;;29.90
23208;BMP180;11773;52.570;13.052;2022-07-22T13:03:31;101627.00;;;29.90
23208;BMP180;11773;52.570;13.052;2022-07-22T13:06:04;101629.00;;;29.90
23208;BMP180;11773;52.570;13.052;2022-07-22T13:08:36;101635.00;;;29.90
23208;BMP180;11773;52.570;13.052;2022-07-22T13:11:07;101632.00;;;30.00
23208;BMP180;11773;52.570;13.052;2022-07-22T13:13:37;101625.00;;;30.00
23208;BMP180;11773;52.570;13.052;2022-07-22T13:16:06;101629.00;;;30.00
23208;BMP180;11773;52.570;13.052;2022-07-22T13:18:36;101620.00;;;30.00
23208;BMP180;11773;52.570;13.052;2022-07-22T13:21:06;101639.00;;;30.00
23208;BMP180;11773;52.570;13.052;2022-07-22T13:23:36;101631.00;;;30.10
23208;BMP180;11773;52.570;13.052;2022-07-22T13:26:06;101630.00;;;30.10
23208;BMP180;11773;52.570;13.052;2022-07-22T13:28:36;101614.00;;;30.10
23208;BMP180;11773;52.570;13.052;2022-07-22T13:31:05;101626.00;;;30.10
23208;BMP180;11773;52.570;13.052;2022-07-22T13:33:35;101618.00;;;30.10
23208;BMP180;11773;52.570;13.052;2022-07-22T13:36:05;101632.00;;;30.10
23208;BMP180;11773;52.570;13.052;2022-07-22T13:38:34;101633.00;;;30.10
23208;BMP180;11773;52.570;13.052;2022-07-22T13:41:04;101629.00;;;30.10
23208;BMP180;11773;52.570;13.052;2022-07-22T13:43:35;101618.00;;;30.10
23208;BMP180;11773;52.570;13.052;2022-07-22T13:46:05;101623.00;;;30.10
23208;BMP180;11773;52.570;13.052;2022-07-22T13:48:35;101629.00;;;30.10
23208;BMP180;11773;52.570;13.052;2022-07-22T13:51:04;101627.00;;;30.10
23208;BMP180;11773;52.570;13.052;2022-07-22T13:53:34;101617.00;;;30.10
23208;BMP180;11773;52.570;13.052;2022-07-22T13:56:05;101617.00;;;30.10
23208;BMP180;11773;52.570;13.052;2022-07-22T13:58:34;101628.00;;;30.10
23208;BMP180;11773;52.570;13.052;2022-07-22T14:01:07;101620.00;;;30.10
23208;BMP180;11773;52.570;13.052;2022-07-22T14:03:39;101624.00;;;30.10
23208;BMP180;11773;52.570;13.052;2022-07-22T14:06:08;101631.00;;;30.20
23208;BMP180;11773;52.570;13.052;2022-07-22T14:08:38;101622.00;;;30.20
23208;BMP180;11773;52.570;13.052;2022-07-22T14:11:08;101618.00;;;30.20